createdAt,value
2019-03-19T00:01:38.499Z,94947.28
2019-03-19T00:04:04.501Z,94939.78
2019-03-19T00:06:30.512Z,94943.78
2019-03-19T00:08:56.517Z,94943.78
2019-03-19T00:11:22.519Z,94940.73
2019-03-19T00:13:48.512Z,94937.23
2019-03-19T00:16:14.519Z,94934.98
2019-03-19T00:18:40.518Z,94925.64
2019-03-19T00:21:06.522Z,94930.56
2019-03-19T00:23:32.514Z,94930.15
2019-03-19T00:25:58.516Z,94937.73
2019-03-19T00:28:24.509Z,94928.94
2019-03-19T00:30:50.520Z,94931.98
2019-03-19T00:33:16.521Z,94936.52
2019-03-19T00:35:42.540Z,94936.94
2019-03-19T00:38:08.540Z,94929.86
2019-03-19T00:40:34.535Z,94926.27
2019-03-19T00:43:00.542Z,94933.73
2019-03-19T00:45:26.542Z,94935.28
2019-03-19T00:47:52.547Z,94925.53
2019-03-19T00:50:18.546Z,94938.36
2019-03-19T00:52:44.555Z,94930.48
2019-03-19T00:55:10.543Z,94924.73
2019-03-19T00:57:36.558Z,94930.07
2019-03-19T01:00:02.560Z,94933.23
2019-03-19T01:02:28.557Z,94933.23
2019-03-19T01:04:54.556Z,94939.41
2019-03-19T01:07:20.552Z,94939.91
2019-03-19T01:09:46.551Z,94936.33
2019-03-19T01:12:12.553Z,94935.08
2019-03-19T01:14:38.542Z,94932.83
2019-03-19T01:17:04.537Z,94938.16
2019-03-19T01:19:30.563Z,94943.91
2019-03-19T01:21:56.560Z,94944.95
2019-03-19T01:24:22.562Z,94949.75
2019-03-19T01:26:48.558Z,94954.28
2019-03-19T01:29:14.558Z,94951.08
2019-03-19T01:31:40.561Z,94957.66
2019-03-19T01:34:06.555Z,94956.03
2019-03-19T01:36:32.557Z,94956.83
2019-03-19T01:38:58.554Z,94955.50
2019-03-19T01:41:24.556Z,94967.08
2019-03-19T01:43:50.552Z,94967.62
2019-03-19T01:46:16.570Z,94965.37
2019-03-19T01:48:42.565Z,94967.20
2019-03-19T01:51:08.631Z,94963.20
2019-03-19T01:53:34.576Z,94973.38
2019-03-19T01:56:05.134Z,94970.80
2019-03-19T01:58:26.572Z,94973.05
2019-03-19T02:00:52.570Z,94977.46
2019-03-19T02:03:18.571Z,94981.05
2019-03-19T02:05:44.566Z,94981.05
2019-03-19T02:08:10.562Z,94984.13
2019-03-19T02:10:36.560Z,94988.63
2019-03-19T02:13:02.591Z,94993.47
2019-03-19T02:15:28.585Z,94992.63
2019-03-19T02:17:54.590Z,94991.42
2019-03-19T02:20:20.596Z,94996.25
2019-03-19T02:22:46.597Z,95002.39
2019-03-19T02:25:12.592Z,95008.25
2019-03-19T02:27:38.589Z,95014.51
2019-03-19T02:30:04.590Z,95012.76
2019-03-19T02:32:30.581Z,95019.42
2019-03-19T02:34:56.581Z,95022.92
2019-03-19T02:37:22.589Z,95021.17
2019-03-19T02:39:48.580Z,95015.84
2019-03-19T02:42:14.582Z,95030.51
2019-03-19T02:44:40.575Z,95031.52
2019-03-19T02:47:06.580Z,95041.69
2019-03-19T02:49:32.572Z,95047.02
2019-03-19T02:51:58.608Z,95055.02
2019-03-19T02:54:24.610Z,95050.60
2019-03-19T02:56:50.600Z,95045.80
2019-03-19T02:59:16.618Z,95049.80
2019-03-19T03:01:42.614Z,95056.98
2019-03-19T03:04:08.620Z,95063.64
2019-03-19T03:06:34.619Z,95064.98
2019-03-19T03:09:00.615Z,95069.81
2019-03-19T03:11:26.609Z,95078.73
2019-03-19T03:13:52.619Z,95080.48
2019-03-19T03:16:18.612Z,95082.73
2019-03-19T03:18:44.611Z,95082.73
2019-03-19T03:21:10.608Z,95087.53
2019-03-19T03:23:36.605Z,95088.98
2019-03-19T03:26:02.601Z,95087.65
2019-03-19T03:28:28.613Z,95080.56
2019-03-19T03:30:57.580Z,95077.48
2019-03-19T03:33:23.589Z,95082.81
2019-03-19T03:35:49.585Z,95085.90
2019-03-19T03:38:15.575Z,95082.41
2019-03-19T03:40:41.577Z,95093.61
2019-03-19T03:43:07.574Z,95094.82
2019-03-19T03:45:33.575Z,95091.86
2019-03-19T03:47:59.573Z,95094.41
2019-03-19T03:50:25.578Z,95099.36
2019-03-19T03:52:51.570Z,95103.86
2019-03-19T03:55:17.584Z,95100.27
2019-03-19T03:57:43.566Z,95109.20
2019-03-19T04:00:09.567Z,95114.53
2019-03-19T04:02:35.602Z,95121.08
2019-03-19T04:05:01.588Z,95122.41
2019-03-19T04:07:27.572Z,95121.61
2019-03-19T04:09:53.604Z,95127.45
2019-03-19T04:12:19.654Z,95131.36
2019-03-19T04:14:46.932Z,95128.37
2019-03-19T04:17:11.666Z,95127.95
2019-03-19T04:19:37.636Z,95135.03
2019-03-19T04:22:03.641Z,95136.28
2019-03-19T04:24:29.638Z,95132.78
2019-03-19T04:26:55.631Z,95131.95
2019-03-19T04:29:21.634Z,95133.28
2019-03-19T04:31:47.631Z,95138.23
2019-03-19T04:34:13.626Z,95142.62
2019-03-19T04:36:39.629Z,95143.16
2019-03-19T04:39:05.814Z,95143.95
2019-03-19T04:41:31.812Z,95151.16
2019-03-19T04:43:57.821Z,95147.57
2019-03-19T04:46:23.814Z,95154.33
2019-03-19T04:48:49.821Z,95157.20
2019-03-19T04:51:16.037Z,95162.42
2019-03-19T04:53:42.041Z,95169.63
2019-03-19T04:56:08.042Z,95164.88
2019-03-19T04:58:34.045Z,95174.63
2019-03-19T05:01:00.039Z,95173.51
2019-03-19T05:03:26.038Z,95177.01
2019-03-19T05:05:52.043Z,95186.43
2019-03-19T05:08:18.063Z,95182.76
2019-03-19T05:10:44.057Z,95184.18
2019-03-19T05:13:10.124Z,95183.27
2019-03-19T05:15:36.140Z,95181.81
2019-03-19T05:18:02.335Z,95181.52
2019-03-19T05:20:28.341Z,95181.52
2019-03-19T05:22:54.345Z,95184.39
2019-03-19T05:25:20.342Z,95183.47
2019-03-19T05:27:46.383Z,95187.35
2019-03-19T05:30:12.378Z,95191.27
2019-03-19T05:32:38.375Z,95190.85
2019-03-19T05:35:04.377Z,95186.94
2019-03-19T05:37:30.373Z,95190.94
2019-03-19T05:39:56.401Z,95188.80
2019-03-19T05:42:22.398Z,95193.22
2019-03-19T05:44:48.393Z,95190.55
2019-03-19T05:47:14.411Z,95195.36
2019-03-19T05:49:40.420Z,95190.44
2019-03-19T05:52:06.469Z,95202.44
2019-03-19T05:54:32.456Z,95198.14
2019-03-19T05:56:58.460Z,95198.64
2019-03-19T05:59:24.457Z,95194.64
2019-03-19T06:01:50.488Z,95198.64
2019-03-19T06:04:16.488Z,95199.14
2019-03-19T06:06:42.497Z,95205.73
2019-03-19T06:09:08.487Z,95206.56
2019-03-19T06:11:34.500Z,95210.65
2019-03-19T06:14:00.534Z,95208.40
2019-03-19T06:16:26.542Z,95206.23
2019-03-19T06:18:52.540Z,95205.43
2019-03-19T06:21:18.553Z,95203.68
2019-03-19T06:23:44.585Z,95211.27
2019-03-19T06:26:10.594Z,95217.52
2019-03-19T06:28:36.586Z,95218.35
2019-03-19T06:31:02.594Z,95212.48
2019-03-19T06:33:28.624Z,95216.40
2019-03-19T06:35:54.646Z,95215.16
2019-03-19T06:38:20.671Z,95219.57
2019-03-19T06:40:46.689Z,95214.35
2019-03-19T06:43:12.684Z,95219.06
2019-03-19T06:45:38.687Z,95218.95
2019-03-19T06:48:04.816Z,95218.56
2019-03-19T06:50:30.818Z,95221.23
2019-03-19T06:52:56.871Z,95221.11
2019-03-19T06:55:22.867Z,95225.11
2019-03-19T06:57:48.876Z,95218.03
2019-03-19T07:00:14.867Z,95222.15
2019-03-19T07:02:40.888Z,95220.70
2019-03-19T07:05:06.894Z,95230.87
2019-03-19T07:07:32.904Z,95230.36
2019-03-19T07:09:58.953Z,95229.12
2019-03-19T07:12:24.968Z,95228.20
2019-03-19T07:14:50.951Z,95222.56
2019-03-19T07:17:17.005Z,95226.86
2019-03-19T07:19:43.027Z,95240.50
2019-03-19T07:22:09.032Z,95238.36
2019-03-19T07:24:35.076Z,95242.25
2019-03-19T07:27:01.076Z,95237.12
2019-03-19T07:29:27.077Z,95238.87
2019-03-19T07:31:53.071Z,95243.28
2019-03-19T07:34:19.081Z,95240.62
2019-03-19T07:36:45.096Z,95240.62
2019-03-19T07:39:11.097Z,95241.53
2019-03-19T07:41:37.257Z,95242.67
2019-03-19T07:44:03.261Z,95230.03
2019-03-19T07:46:29.275Z,95232.83
2019-03-19T07:48:55.290Z,95245.22
2019-03-19T07:51:21.302Z,95246.16
2019-03-19T07:53:47.354Z,95238.66
2019-03-19T07:56:13.382Z,95236.30
2019-03-19T07:58:45.213Z,95243.50
2019-03-19T08:01:05.403Z,95238.75
2019-03-19T08:03:31.407Z,95243.08
2019-03-19T08:05:57.406Z,95237.21
2019-03-19T08:08:23.474Z,95228.41
2019-03-19T08:10:49.412Z,95235.58
2019-03-19T08:13:15.420Z,95236.50
2019-03-19T08:15:41.415Z,95237.53
2019-03-19T08:18:07.436Z,95235.78
2019-03-19T08:20:33.426Z,95229.23
2019-03-19T08:22:59.428Z,95230.56
2019-03-19T08:25:25.469Z,95235.91
2019-03-19T08:27:51.515Z,95224.81
2019-03-19T08:30:17.530Z,95224.40
2019-03-19T08:32:43.528Z,95226.66
2019-03-19T08:35:09.719Z,95231.07
2019-03-19T08:40:25.324Z,95225.73
2019-03-19T08:42:51.348Z,95223.48
2019-03-19T08:45:17.356Z,95223.07
2019-03-19T08:47:43.350Z,95222.65
2019-03-19T08:50:09.369Z,95219.98
2019-03-19T08:52:35.371Z,95210.65
2019-03-19T08:55:01.372Z,95214.65
2019-03-19T08:57:27.373Z,95211.06
2019-03-19T08:59:53.390Z,95211.06
2019-03-19T09:02:19.531Z,95208.90
2019-03-19T09:04:45.546Z,95206.56
2019-03-19T09:07:11.538Z,95210.23
2019-03-19T09:09:37.593Z,95209.81
2019-03-19T09:12:03.611Z,95208.48
2019-03-19T09:14:29.616Z,95208.48
2019-03-19T09:16:55.614Z,95205.73
2019-03-19T09:19:21.617Z,95201.31
2019-03-19T09:21:47.639Z,95204.39
2019-03-19T09:24:13.636Z,95209.44
2019-03-19T09:26:39.634Z,95215.16
2019-03-19T09:29:16.075Z,95207.27
2019-03-19T09:31:31.632Z,95206.77
2019-03-19T09:33:57.630Z,95212.48
2019-03-19T09:36:23.627Z,95209.73
2019-03-19T09:38:49.653Z,95203.98
2019-03-19T09:41:15.647Z,95199.89
2019-03-19T09:43:41.645Z,95204.90
2019-03-19T09:46:07.657Z,95208.48
2019-03-19T09:48:33.658Z,95204.81
2019-03-19T09:50:59.663Z,95204.39
2019-03-19T09:53:25.654Z,95204.81
2019-03-19T09:55:51.658Z,95201.10
2019-03-19T09:58:17.651Z,95201.23
2019-03-19T10:00:43.655Z,95197.61
2019-03-19T10:03:09.842Z,95197.22
2019-03-19T10:05:35.849Z,95199.48
2019-03-19T10:08:01.845Z,95198.86
2019-03-19T10:10:27.897Z,95199.36
2019-03-19T10:12:53.884Z,95194.94
2019-03-19T10:15:19.885Z,95193.40
2019-03-19T10:17:45.887Z,95190.34
2019-03-19T10:20:12.010Z,95193.10
2019-03-19T10:22:38.014Z,95186.23
2019-03-19T10:25:12.718Z,95182.73
2019-03-19T10:27:38.738Z,95180.80
2019-03-19T10:32:50.945Z,95185.31
2019-03-19T10:35:16.939Z,95184.39
2019-03-19T10:40:28.141Z,95171.77
2019-03-19T10:42:54.249Z,95175.27
2019-03-19T10:45:20.260Z,95176.39
2019-03-19T10:47:46.303Z,95176.27
2019-03-19T10:50:12.301Z,95170.31
2019-03-19T10:52:38.294Z,95165.31
2019-03-19T10:55:04.303Z,95156.89
2019-03-19T10:57:30.299Z,95155.05
2019-03-19T10:59:56.306Z,95158.23
2019-03-19T11:02:33.675Z,95152.77
2019-03-19T11:05:00.384Z,95151.14
2019-03-19T11:07:26.264Z,95150.31
2019-03-19T11:09:52.396Z,95148.89
2019-03-19T11:12:18.410Z,95139.97
2019-03-19T11:14:44.435Z,95138.72
2019-03-19T11:17:10.420Z,95136.34
2019-03-19T11:19:36.450Z,95132.34
2019-03-19T11:22:02.448Z,95132.05
2019-03-19T11:24:28.473Z,95126.80
2019-03-19T11:26:54.487Z,95116.45
2019-03-19T11:29:20.488Z,95123.63
2019-03-19T11:31:46.544Z,95119.12
2019-03-19T11:34:12.553Z,95114.20
2019-03-19T11:36:38.549Z,95109.79
2019-03-19T11:39:04.551Z,95113.17
2019-03-19T11:41:30.601Z,95107.12
2019-03-19T11:43:56.555Z,95107.20
2019-03-19T11:46:22.586Z,95112.95
2019-03-19T11:48:48.595Z,95098.16
2019-03-19T11:51:14.590Z,95102.78
2019-03-19T11:53:40.594Z,95101.87
2019-03-19T11:56:06.592Z,95097.75
2019-03-19T11:58:32.599Z,95095.28
2019-03-19T12:00:58.594Z,95088.94
2019-03-19T12:03:24.648Z,95088.34
2019-03-19T12:05:50.643Z,95084.13
2019-03-19T12:08:16.638Z,95090.18
2019-03-19T12:10:42.728Z,95079.30
2019-03-19T12:13:08.727Z,95081.75
2019-03-19T12:15:34.726Z,95076.13
2019-03-19T12:18:00.723Z,95079.59
2019-03-19T12:20:26.741Z,95076.41
2019-03-19T12:22:52.738Z,95074.66
2019-03-19T12:25:18.736Z,95073.45
2019-03-19T12:27:44.885Z,95064.91
2019-03-19T12:30:21.476Z,95066.65
2019-03-19T12:32:36.874Z,95070.23
2019-03-19T12:35:02.933Z,95063.47
2019-03-19T12:37:28.942Z,95066.44
2019-03-19T12:39:54.957Z,95062.64
2019-03-19T12:42:20.966Z,95061.39
2019-03-19T12:44:46.975Z,95053.50
2019-03-19T12:47:12.998Z,95051.54
2019-03-19T12:49:39.039Z,95060.66
2019-03-19T12:52:05.298Z,95058.70
2019-03-19T12:54:31.293Z,95053.78
2019-03-19T12:56:57.300Z,95050.19
2019-03-19T12:59:23.300Z,95046.18
2019-03-19T13:01:49.299Z,95042.05
2019-03-19T13:04:15.298Z,95047.80
2019-03-19T13:06:41.299Z,95058.15
2019-03-19T13:09:07.291Z,95051.38
2019-03-19T13:11:33.310Z,95055.06
2019-03-19T13:13:59.303Z,95050.55
2019-03-19T13:16:25.310Z,95054.84
2019-03-19T13:18:51.341Z,95047.95
2019-03-19T13:21:17.376Z,95052.66
2019-03-19T13:23:43.393Z,95055.23
2019-03-19T13:26:09.475Z,95054.73
2019-03-19T13:28:35.468Z,95058.20
2019-03-19T13:31:01.478Z,95053.27
2019-03-19T13:33:27.481Z,95048.33
2019-03-19T13:35:53.527Z,95048.63
2019-03-19T13:38:19.564Z,95049.24
2019-03-19T13:40:45.595Z,95056.01
2019-03-19T13:43:11.595Z,95057.67
2019-03-19T13:45:37.606Z,95053.83
2019-03-19T13:48:03.620Z,95057.04
2019-03-19T13:50:29.612Z,95056.48
2019-03-19T13:52:55.620Z,95046.22
2019-03-19T13:55:21.606Z,95044.89
2019-03-19T13:57:47.638Z,95052.18
2019-03-19T14:00:13.636Z,95046.64
2019-03-19T14:02:39.632Z,95051.34
2019-03-19T14:05:05.786Z,95041.70
2019-03-19T14:07:31.791Z,95040.95
2019-03-19T14:09:57.797Z,95044.95
2019-03-19T14:12:23.794Z,95046.83
2019-03-19T14:14:49.802Z,95041.05
2019-03-19T14:17:15.802Z,95041.85
2019-03-19T14:19:41.822Z,95040.14
2019-03-19T14:22:08.050Z,95046.69
2019-03-19T14:24:34.056Z,95041.14
2019-03-19T14:27:00.059Z,95050.60
2019-03-19T14:29:26.057Z,95050.81
2019-03-19T14:31:52.058Z,95047.73
2019-03-19T14:34:18.047Z,95053.08
2019-03-19T14:36:44.062Z,95047.82
2019-03-19T14:39:10.056Z,95050.08
2019-03-19T14:41:36.078Z,95049.70
2019-03-19T14:44:02.077Z,95058.92
2019-03-19T14:46:28.115Z,95063.05
2019-03-19T14:48:54.121Z,95050.83
2019-03-19T14:51:20.124Z,95060.70
2019-03-19T14:53:46.135Z,95067.38
2019-03-19T14:56:12.130Z,95068.91
2019-03-19T14:58:38.184Z,95074.77
2019-03-19T15:01:04.198Z,95081.28
2019-03-19T15:03:30.199Z,95080.73
2019-03-19T15:05:56.195Z,95087.83
2019-03-19T15:08:22.204Z,95091.76
2019-03-19T15:10:48.199Z,95096.06
2019-03-19T15:13:14.288Z,95100.19
2019-03-19T15:15:40.239Z,95102.95
2019-03-19T15:18:06.235Z,95111.68
2019-03-19T15:20:32.239Z,95114.56
2019-03-19T15:22:58.250Z,95123.31
2019-03-19T15:25:24.252Z,95130.09
2019-03-19T15:27:50.309Z,95123.63
2019-03-19T15:30:16.269Z,95133.09
2019-03-19T15:32:42.263Z,95132.34
2019-03-19T15:35:08.283Z,95138.84
2019-03-19T15:37:36.586Z,95142.31
2019-03-19T15:40:00.346Z,95148.90
2019-03-19T15:42:26.311Z,95146.86
2019-03-19T15:44:52.309Z,95149.41
2019-03-19T15:47:18.341Z,95148.58
2019-03-19T15:49:44.340Z,95155.79
2019-03-19T15:52:10.345Z,95160.71
2019-03-19T15:54:36.340Z,95173.98
2019-03-19T15:57:02.347Z,95171.10
2019-03-19T15:59:28.346Z,95162.88
2019-03-19T16:01:54.348Z,95167.39
2019-03-19T16:04:20.343Z,95173.66
2019-03-19T16:06:46.369Z,95186.00
2019-03-19T16:09:12.370Z,95193.38
2019-03-19T16:11:38.371Z,95194.72
2019-03-19T16:14:04.442Z,95200.77
2019-03-19T16:16:30.430Z,95197.19
2019-03-19T16:18:56.433Z,95203.45
2019-03-19T16:21:22.432Z,95204.06
2019-03-19T16:23:48.467Z,95207.78
2019-03-19T16:26:14.460Z,95211.16
2019-03-19T16:28:40.481Z,95217.00
2019-03-19T16:31:06.549Z,95218.67
2019-03-19T16:33:32.588Z,95222.55
2019-03-19T16:35:58.601Z,95230.15
2019-03-19T16:38:24.611Z,95232.94
2019-03-19T16:40:50.611Z,95235.19
2019-03-19T16:43:16.607Z,95243.20
2019-03-19T16:45:42.608Z,95255.84
2019-03-19T16:48:08.608Z,95253.67
2019-03-19T16:50:34.614Z,95257.89
2019-03-19T16:53:00.624Z,95267.94
2019-03-19T16:55:26.669Z,95267.32
2019-03-19T16:57:52.714Z,95275.66
2019-03-19T17:00:18.718Z,95278.83
2019-03-19T17:02:44.715Z,95278.53
2019-03-19T17:05:10.710Z,95280.67
2019-03-19T17:07:36.725Z,95280.49
2019-03-19T17:10:02.729Z,95286.55
2019-03-19T17:12:28.772Z,95290.63
2019-03-19T17:14:54.786Z,95293.09
2019-03-19T17:17:20.807Z,95293.42
2019-03-19T17:19:46.803Z,95301.23
2019-03-19T17:22:12.808Z,95305.31
2019-03-19T17:24:38.841Z,95307.61
2019-03-19T17:27:04.841Z,95321.34
2019-03-19T17:29:30.844Z,95331.22
2019-03-19T17:31:56.846Z,95329.05
2019-03-19T17:34:22.843Z,95332.97
2019-03-19T17:36:48.950Z,95336.97
2019-03-19T17:39:14.961Z,95333.89
2019-03-19T17:41:40.960Z,95338.81
2019-03-19T17:44:06.975Z,95345.90
2019-03-19T17:46:32.977Z,95350.52
2019-03-19T17:48:59.008Z,95354.62
2019-03-19T17:51:25.034Z,95356.88
2019-03-19T17:53:52.283Z,95364.16
2019-03-19T17:56:18.317Z,95366.33
2019-03-19T17:58:44.324Z,95367.87
2019-03-19T18:01:17.279Z,95368.29
2019-03-19T18:03:36.330Z,95371.05
2019-03-19T18:06:02.448Z,95372.80
2019-03-19T18:08:29.038Z,95375.97
2019-03-19T18:10:55.042Z,95372.88
2019-03-19T18:13:21.046Z,95386.77
2019-03-19T18:15:47.048Z,95384.09
2019-03-19T18:18:13.042Z,95387.68
2019-03-19T18:20:39.040Z,95389.09
2019-03-19T18:23:05.234Z,95392.19
2019-03-19T18:25:31.229Z,95396.81
2019-03-19T18:27:57.237Z,95397.64
2019-03-19T18:30:23.353Z,95400.31
2019-03-19T18:32:49.352Z,95401.11
2019-03-19T18:35:15.358Z,95408.32
2019-03-19T18:37:41.358Z,95407.48
2019-03-19T18:40:07.361Z,95408.20
2019-03-19T18:42:33.371Z,95414.05
2019-03-19T18:44:59.413Z,95413.66
2019-03-19T18:47:27.954Z,95418.05
2019-03-19T18:49:53.966Z,95418.58
2019-03-19T18:52:19.964Z,95418.17
2019-03-19T18:54:45.966Z,95424.72
2019-03-19T18:57:12.402Z,95427.39
2019-03-19T18:59:38.429Z,95427.31
2019-03-19T19:02:04.428Z,95423.39
2019-03-19T19:04:30.490Z,95429.14
2019-03-19T19:06:56.498Z,95428.14
2019-03-19T19:09:22.496Z,95433.90
2019-03-19T19:11:48.491Z,95433.69
2019-03-19T19:14:14.494Z,95431.41
2019-03-19T19:16:40.587Z,95436.75
2019-03-19T19:19:06.566Z,95438.00
2019-03-19T19:21:32.565Z,95441.50
2019-03-19T19:23:58.732Z,95448.06
2019-03-19T19:26:24.731Z,95447.14
2019-03-19T19:28:50.752Z,95450.73
2019-03-19T19:31:16.810Z,95458.66
2019-03-19T19:33:42.786Z,95457.20
2019-03-19T19:36:08.792Z,95465.21
2019-03-19T19:38:34.784Z,95463.79
2019-03-19T19:41:00.791Z,95463.67
2019-03-19T19:43:26.786Z,95459.16
2019-03-19T19:45:52.789Z,95467.78
2019-03-19T19:48:19.100Z,95467.39
2019-03-19T19:50:45.104Z,95471.89
2019-03-19T19:53:11.099Z,95471.89
2019-03-19T19:55:37.106Z,95480.95
2019-03-19T19:58:03.101Z,95480.11
2019-03-19T20:00:29.098Z,95485.15
2019-03-19T20:02:55.112Z,95487.91
2019-03-19T20:05:21.107Z,95495.00
2019-03-19T20:07:47.100Z,95497.25
2019-03-19T20:10:13.091Z,95501.25
2019-03-19T20:12:39.104Z,95501.75
2019-03-19T20:15:05.103Z,95501.88
2019-03-19T20:17:31.111Z,95508.12
2019-03-19T20:19:57.103Z,95504.74
2019-03-19T20:22:23.129Z,95511.83
2019-03-19T20:24:49.125Z,95510.17
2019-03-19T20:27:15.130Z,95509.37
2019-03-19T20:29:41.131Z,95514.29
2019-03-19T20:32:07.169Z,95512.23
2019-03-19T20:34:33.180Z,95510.48
2019-03-19T20:36:59.174Z,95512.82
2019-03-19T20:39:25.183Z,95516.83
2019-03-19T20:41:51.289Z,95528.45
2019-03-19T20:44:17.289Z,95533.46
2019-03-19T20:46:43.319Z,95535.72
2019-03-19T20:49:09.344Z,95534.80
2019-03-19T20:51:36.073Z,95533.58
2019-03-19T20:54:03.886Z,95536.75
2019-03-19T20:56:28.108Z,95532.74
2019-03-19T20:58:54.126Z,95538.08
2019-03-19T21:01:20.140Z,95542.09
2019-03-19T21:03:46.135Z,95541.67
2019-03-19T21:06:12.135Z,95546.20
2019-03-19T21:08:38.139Z,95546.70
2019-03-19T21:11:04.137Z,95550.41
2019-03-19T21:13:30.132Z,95551.33
2019-03-19T21:15:56.156Z,95549.16
2019-03-19T21:18:22.159Z,95552.86
2019-03-19T21:20:48.154Z,95554.20
2019-03-19T21:23:14.149Z,95557.78
2019-03-19T21:25:40.142Z,95552.14
2019-03-19T21:28:13.936Z,95558.81
2019-03-19T21:30:32.315Z,95554.89
2019-03-19T21:32:58.440Z,95560.23
2019-03-19T21:35:24.483Z,95559.40
2019-03-19T21:37:50.526Z,95555.92
2019-03-19T21:40:16.514Z,95556.84
2019-03-19T21:42:42.509Z,95554.79
2019-03-19T21:45:08.513Z,95557.46
2019-03-19T21:47:34.514Z,95561.97
2019-03-19T21:50:00.526Z,95555.80
2019-03-19T21:52:26.518Z,95562.88
2019-03-19T21:54:52.524Z,95564.64
2019-03-19T21:57:18.538Z,95564.33
2019-03-19T21:59:44.552Z,95560.00
2019-03-19T22:02:10.549Z,95564.11
2019-03-19T22:04:36.572Z,95563.20
2019-03-19T22:07:02.565Z,95565.45
2019-03-19T22:09:28.559Z,95568.12
2019-03-19T22:11:54.566Z,95568.20
2019-03-19T22:14:20.563Z,95572.20
2019-03-19T22:16:46.571Z,95575.41
2019-03-19T22:19:12.569Z,95568.40
2019-03-19T22:21:38.568Z,95572.94
2019-03-19T22:24:04.594Z,95572.94
2019-03-19T22:26:30.595Z,95572.52
2019-03-19T22:28:56.590Z,95572.52
2019-03-19T22:31:22.614Z,95574.35
2019-03-19T22:33:48.659Z,95574.88
2019-03-19T22:36:14.652Z,95573.55
2019-03-19T22:38:40.656Z,95575.80
2019-03-19T22:41:06.651Z,95577.55
2019-03-19T22:43:32.651Z,95578.55
2019-03-19T22:45:58.647Z,95578.55
2019-03-19T22:48:24.673Z,95578.63
2019-03-19T22:50:50.671Z,95580.89
2019-03-19T22:53:16.676Z,95584.80
2019-03-19T22:55:42.676Z,95579.63
2019-03-19T22:58:08.673Z,95587.64
2019-03-19T23:00:34.680Z,95584.97
2019-03-19T23:03:00.680Z,95591.23
2019-03-19T23:05:26.675Z,95588.26
2019-03-19T23:07:52.671Z,95588.26
2019-03-19T23:10:18.671Z,95587.84
2019-03-19T23:12:44.672Z,95596.77
2019-03-19T23:15:10.667Z,95592.77
2019-03-19T23:17:36.663Z,95601.30
2019-03-19T23:20:02.687Z,95601.30
2019-03-19T23:22:28.679Z,95599.12
2019-03-19T23:24:54.680Z,95598.21
2019-03-19T23:27:20.680Z,95600.46
2019-03-19T23:29:46.680Z,95609.39
2019-03-19T23:32:12.687Z,95605.50
2019-03-19T23:34:38.923Z,95608.59
2019-03-19T23:37:04.683Z,95606.83
2019-03-19T23:39:30.674Z,95608.25
2019-03-19T23:41:56.707Z,95609.50
2019-03-19T23:44:22.708Z,95609.58
2019-03-19T23:46:48.736Z,95618.51
2019-03-19T23:49:14.722Z,95612.37
2019-03-19T23:51:40.721Z,95618.13
2019-03-19T23:54:06.724Z,95616.87
2019-03-19T23:56:32.721Z,95619.53
2019-03-19T23:58:58.721Z,95618.31
